createdAt,value
2018-02-14T00:00:33.439Z,95263.61
2018-02-14T00:03:01.754Z,95264.12
2018-02-14T00:05:30.141Z,95257.34
2018-02-14T00:07:58.477Z,95259.05
2018-02-14T00:10:26.782Z,95256.03
2018-02-14T00:12:55.135Z,95258.81
2018-02-14T00:15:23.459Z,95263.52
2018-02-14T00:17:51.807Z,95263.50
2018-02-14T00:20:20.127Z,95265.21
2018-02-14T00:22:48.479Z,95268.16
2018-02-14T00:25:16.906Z,95258.85
2018-02-14T00:27:45.350Z,95271.23
2018-02-14T00:30:13.822Z,95271.03
2018-02-14T00:32:42.148Z,95276.34
2018-02-14T00:35:11.318Z,95277.84
2018-02-14T00:37:39.641Z,95286.67
2018-02-14T00:42:42.650Z,95287.58
2018-02-14T00:45:11.010Z,95282.58
2018-02-14T00:47:39.330Z,95291.06
2018-02-14T00:50:07.670Z,95278.86
2018-02-14T00:52:36.012Z,95276.05
2018-02-14T00:55:04.338Z,95278.62
2018-02-14T00:57:32.753Z,95283.59
2018-02-14T01:00:01.166Z,95281.93
2018-02-14T01:02:29.503Z,95284.36
2018-02-14T01:04:57.839Z,95287.02
2018-02-14T01:07:26.214Z,95291.15
2018-02-14T01:09:54.538Z,95285.97
2018-02-14T01:12:22.875Z,95292.09
2018-02-14T01:14:51.225Z,95290.19
2018-02-14T01:17:19.550Z,95288.22
2018-02-14T01:19:48.206Z,95287.45
2018-02-14T01:22:16.532Z,95294.56
2018-02-14T01:24:44.898Z,95290.80
2018-02-14T01:27:13.216Z,95299.43
2018-02-14T01:29:41.538Z,95296.52
2018-02-14T01:32:09.894Z,95299.03
2018-02-14T01:34:38.257Z,95302.34
2018-02-14T01:37:06.585Z,95303.91
2018-02-14T01:39:34.921Z,95305.64
2018-02-14T01:42:03.391Z,95305.87
2018-02-14T01:44:31.711Z,95302.38
2018-02-14T01:47:00.040Z,95304.63
2018-02-14T01:49:28.422Z,95307.52
2018-02-14T01:51:56.738Z,95310.78
2018-02-14T01:54:25.192Z,95308.03
2018-02-14T01:56:53.492Z,95309.16
2018-02-14T01:59:21.910Z,95308.77
2018-02-14T02:01:50.258Z,95322.17
2018-02-14T02:04:18.598Z,95317.11
2018-02-14T02:06:46.925Z,95316.94
2018-02-14T02:09:15.294Z,95316.17
2018-02-14T02:11:43.648Z,95316.55
2018-02-14T02:14:12.066Z,95314.52
2018-02-14T02:16:40.420Z,95316.31
2018-02-14T02:19:08.739Z,95316.70
2018-02-14T02:21:37.087Z,95315.69
2018-02-14T02:24:05.515Z,95318.50
2018-02-14T02:26:33.893Z,95316.62
2018-02-14T02:29:02.199Z,95322.21
2018-02-14T02:31:30.551Z,95321.42
2018-02-14T02:33:58.930Z,95326.81
2018-02-14T02:36:27.375Z,95317.98
2018-02-14T02:38:55.698Z,95323.17
2018-02-14T02:41:24.007Z,95318.50
2018-02-14T02:43:52.398Z,95316.45
2018-02-14T02:46:20.806Z,95320.44
2018-02-14T02:48:49.151Z,95323.84
2018-02-14T02:51:17.534Z,95320.55
2018-02-14T02:53:45.893Z,95319.32
2018-02-14T02:56:14.218Z,95326.66
2018-02-14T02:58:42.553Z,95324.33
2018-02-14T03:01:10.896Z,95322.16
2018-02-14T03:03:39.245Z,95325.42
2018-02-14T03:06:07.598Z,95330.66
2018-02-14T03:08:36.106Z,95337.42
2018-02-14T03:11:04.439Z,95333.78
2018-02-14T03:13:32.768Z,95341.75
2018-02-14T03:16:01.108Z,95343.61
2018-02-14T03:18:29.432Z,95338.81
2018-02-14T03:20:57.866Z,95341.83
2018-02-14T03:23:26.243Z,95339.66
2018-02-14T03:25:54.604Z,95339.36
2018-02-14T03:28:22.942Z,95345.31
2018-02-14T03:30:51.270Z,95342.75
2018-02-14T03:33:19.595Z,95344.58
2018-02-14T03:35:47.950Z,95342.95
2018-02-14T03:38:16.283Z,95340.94
2018-02-14T03:40:44.599Z,95348.05
2018-02-14T03:43:12.967Z,95346.55
2018-02-14T03:45:41.295Z,95353.45
2018-02-14T03:48:09.642Z,95358.18
2018-02-14T03:50:37.970Z,95364.88
2018-02-14T03:53:06.326Z,95367.54
2018-02-14T03:55:34.692Z,95368.72
2018-02-14T03:58:03.253Z,95370.02
2018-02-14T04:00:31.570Z,95368.28
2018-02-14T04:02:59.886Z,95367.18
2018-02-14T04:05:28.242Z,95374.14
2018-02-14T04:07:56.581Z,95381.92
2018-02-14T04:10:24.937Z,95386.25
2018-02-14T04:12:53.307Z,95393.72
2018-02-14T04:15:21.649Z,95397.30
2018-02-14T04:17:50.063Z,95399.86
2018-02-14T04:20:18.441Z,95406.22
2018-02-14T04:22:46.785Z,95404.88
2018-02-14T04:25:15.158Z,95410.34
2018-02-14T04:27:43.478Z,95415.28
2018-02-14T04:30:11.806Z,95420.62
2018-02-14T04:32:40.218Z,95423.84
2018-02-14T04:35:08.658Z,95424.12
2018-02-14T04:37:37.157Z,95428.66
2018-02-14T04:40:05.810Z,95428.41
2018-02-14T04:42:34.166Z,95426.45
2018-02-14T04:45:02.502Z,95440.03
2018-02-14T04:47:30.857Z,95442.17
2018-02-14T04:49:59.221Z,95445.90
2018-02-14T04:52:27.540Z,95448.52
2018-02-14T04:54:55.883Z,95451.77
2018-02-14T04:57:24.211Z,95451.86
2018-02-14T04:59:52.568Z,95457.52
2018-02-14T05:02:20.887Z,95459.09
2018-02-14T05:04:49.239Z,95466.75
2018-02-14T05:07:17.558Z,95472.24
2018-02-14T05:09:46.148Z,95476.79
2018-02-14T05:12:14.524Z,95477.11
2018-02-14T05:14:42.902Z,95483.64
2018-02-14T05:17:11.258Z,95488.50
2018-02-14T05:19:39.592Z,95489.00
2018-02-14T05:22:08.039Z,95491.94
2018-02-14T05:24:36.355Z,95489.89
2018-02-14T05:27:04.720Z,95491.53
2018-02-14T05:29:33.680Z,95489.63
2018-02-14T05:32:02.019Z,95494.45
2018-02-14T05:34:30.362Z,95497.30
2018-02-14T05:36:59.091Z,95502.66
2018-02-14T05:39:27.431Z,95508.94
2018-02-14T05:41:55.815Z,95509.64
2018-02-14T05:44:24.227Z,95511.37
2018-02-14T05:46:52.556Z,95510.94
2018-02-14T05:49:20.907Z,95514.38
2018-02-14T05:51:49.243Z,95519.92
2018-02-14T05:54:17.702Z,95526.97
2018-02-14T05:56:46.027Z,95529.16
2018-02-14T05:59:14.391Z,95538.24
2018-02-14T06:01:42.718Z,95542.92
2018-02-14T06:04:11.066Z,95548.16
2018-02-14T06:06:39.398Z,95555.89
2018-02-14T06:09:07.770Z,95556.97
2018-02-14T06:11:36.148Z,95561.71
2018-02-14T06:14:04.481Z,95565.68
2018-02-14T06:16:32.831Z,95572.73
2018-02-14T06:19:01.159Z,95577.41
2018-02-14T06:21:29.529Z,95578.91
2018-02-14T06:23:58.019Z,95585.98
2018-02-14T06:26:27.615Z,95585.01
2018-02-14T06:28:55.935Z,95593.31
2018-02-14T06:31:24.306Z,95594.41
2018-02-14T06:33:52.635Z,95605.22
2018-02-14T06:36:20.986Z,95603.03
2018-02-14T06:38:49.405Z,95602.73
2018-02-14T06:41:17.722Z,95607.25
2018-02-14T06:43:46.066Z,95612.64
2018-02-14T06:46:14.398Z,95611.66
2018-02-14T06:48:42.759Z,95620.81
2018-02-14T06:51:11.086Z,95623.05
2018-02-14T06:53:39.549Z,95623.45
2018-02-14T06:56:07.868Z,95622.69
2018-02-14T06:58:36.235Z,95631.30
2018-02-14T07:01:04.561Z,95637.83
2018-02-14T07:03:32.911Z,95634.83
2018-02-14T07:06:01.239Z,95639.02
2018-02-14T07:08:29.604Z,95636.11
2018-02-14T07:10:57.982Z,95643.73
2018-02-14T07:13:26.308Z,95647.31
2018-02-14T07:15:54.734Z,95642.13
2018-02-14T07:18:23.067Z,95643.69
2018-02-14T07:20:51.398Z,95656.34
2018-02-14T07:23:25.404Z,95648.13
2018-02-14T07:25:53.781Z,95660.43
2018-02-14T07:28:22.255Z,95654.22
2018-02-14T07:30:50.590Z,95660.11
2018-02-14T07:33:18.942Z,95657.67
2018-02-14T07:35:47.266Z,95666.91
2018-02-14T07:38:15.628Z,95661.41
2018-02-14T07:40:43.997Z,95671.66
2018-02-14T07:43:12.328Z,95681.42
2018-02-14T07:45:40.651Z,95681.22
2018-02-14T07:48:09.338Z,95689.89
2018-02-14T07:50:37.646Z,95683.76
2018-02-14T07:53:06.049Z,95674.31
2018-02-14T07:55:34.394Z,95677.36
2018-02-14T07:58:02.722Z,95686.54
2018-02-14T08:00:31.075Z,95686.80
2018-02-14T08:02:59.409Z,95691.57
2018-02-14T08:05:27.754Z,95698.75
2018-02-14T08:07:56.089Z,95696.85
2018-02-14T08:10:24.441Z,95699.23
2018-02-14T08:12:52.762Z,95707.53
2018-02-14T08:15:21.139Z,95707.41
2018-02-14T08:17:49.470Z,95708.86
2018-02-14T08:20:17.784Z,95711.66
2018-02-14T08:22:46.126Z,95707.28
2018-02-14T08:25:14.590Z,95711.67
2018-02-14T08:27:42.921Z,95720.88
2018-02-14T08:30:11.276Z,95719.16
2018-02-14T08:32:39.657Z,95726.94
2018-02-14T08:35:07.981Z,95717.10
2018-02-14T08:37:36.373Z,95718.77
2018-02-14T08:40:04.687Z,95720.55
2018-02-14T08:42:33.065Z,95726.94
2018-02-14T08:45:01.537Z,95732.33
2018-02-14T08:47:29.854Z,95737.16
2018-02-14T08:49:58.208Z,95734.77
2018-02-14T08:52:26.614Z,95729.50
2018-02-14T08:54:54.950Z,95738.53
2018-02-14T08:57:23.302Z,95741.01
2018-02-14T08:59:51.646Z,95741.76
2018-02-14T09:02:19.974Z,95736.09
2018-02-14T09:04:48.394Z,95741.84
2018-02-14T09:07:16.732Z,95739.95
2018-02-14T09:09:45.133Z,95740.95
2018-02-14T09:12:13.467Z,95747.12
2018-02-14T09:14:41.797Z,95741.51
2018-02-14T09:17:10.157Z,95746.73
2018-02-14T09:19:38.503Z,95750.52
2018-02-14T09:22:06.983Z,95751.59
2018-02-14T09:24:35.305Z,95755.91
2018-02-14T09:27:03.667Z,95764.23
2018-02-14T09:29:32.078Z,95762.03
2018-02-14T09:32:00.453Z,95762.20
2018-02-14T09:34:28.784Z,95754.46
2018-02-14T09:36:57.153Z,95760.33
2018-02-14T09:39:25.528Z,95761.17
2018-02-14T09:41:53.991Z,95765.85
2018-02-14T09:44:22.322Z,95756.63
2018-02-14T09:46:50.645Z,95760.30
2018-02-14T09:49:19.013Z,95769.41
2018-02-14T09:51:47.421Z,95767.75
2018-02-14T09:54:15.751Z,95767.41
2018-02-14T09:56:44.131Z,95769.31
2018-02-14T09:59:12.503Z,95768.99
2018-02-14T10:01:40.849Z,95770.22
2018-02-14T10:04:09.245Z,95770.73
2018-02-14T10:06:37.593Z,95767.42
2018-02-14T10:09:05.895Z,95770.13
2018-02-14T10:11:34.242Z,95772.22
2018-02-14T10:14:02.564Z,95764.66
2018-02-14T10:16:30.906Z,95767.20
2018-02-14T10:18:59.234Z,95761.78
2018-02-14T10:21:27.566Z,95765.25
2018-02-14T10:23:55.957Z,95762.47
2018-02-14T10:26:24.293Z,95762.52
2018-02-14T10:28:52.610Z,95768.59
2018-02-14T10:31:20.957Z,95770.69
2018-02-14T10:33:49.265Z,95764.38
2018-02-14T10:36:17.583Z,95762.63
2018-02-14T10:38:45.931Z,95761.40
2018-02-14T10:41:14.243Z,95766.60
2018-02-14T10:43:42.610Z,95771.92
2018-02-14T10:46:10.928Z,95771.19
2018-02-14T10:48:39.302Z,95768.73
2018-02-14T10:51:07.607Z,95771.59
2018-02-14T10:53:35.950Z,95778.55
2018-02-14T10:56:04.258Z,95773.95
2018-02-14T10:58:32.820Z,95770.89
2018-02-14T11:01:02.026Z,95776.84
2018-02-14T11:03:36.129Z,95775.11
2018-02-14T11:06:10.021Z,95778.55
2018-02-14T11:08:38.393Z,95775.69
2018-02-14T11:11:06.700Z,95771.02
2018-02-14T11:13:35.011Z,95776.16
2018-02-14T11:16:03.345Z,95772.94
2018-02-14T11:18:31.650Z,95779.86
2018-02-14T11:21:00.030Z,95777.01
2018-02-14T11:23:28.434Z,95777.94
2018-02-14T11:25:56.824Z,95777.80
2018-02-14T11:28:25.194Z,95784.31
2018-02-14T11:30:53.522Z,95780.97
2018-02-14T11:33:21.837Z,95784.22
2018-02-14T11:35:50.185Z,95785.67
2018-02-14T11:38:18.628Z,95783.38
2018-02-14T11:40:47.011Z,95777.54
2018-02-14T11:43:15.337Z,95787.13
2018-02-14T11:45:44.634Z,95782.62
2018-02-14T11:48:13.081Z,95782.91
2018-02-14T11:50:41.381Z,95778.54
2018-02-14T11:53:09.735Z,95778.63
2018-02-14T11:55:38.055Z,95785.80
2018-02-14T11:58:06.407Z,95785.79
2018-02-14T12:00:34.730Z,95781.34
2018-02-14T12:03:03.116Z,95788.09
2018-02-14T12:05:31.426Z,95782.29
2018-02-14T12:07:59.746Z,95783.76
2018-02-14T12:10:28.131Z,95781.94
2018-02-14T12:12:56.538Z,95777.09
2018-02-14T12:15:24.874Z,95779.20
2018-02-14T12:17:53.213Z,95783.47
2018-02-14T12:20:21.568Z,95783.66
2018-02-14T12:22:49.909Z,95783.86
2018-02-14T12:25:18.248Z,95784.95
2018-02-14T12:27:46.575Z,95792.00
2018-02-14T12:30:14.973Z,95780.42
2018-02-14T12:32:43.308Z,95780.79
2018-02-14T12:35:11.620Z,95777.98
2018-02-14T12:37:39.983Z,95774.91
2018-02-14T12:40:08.323Z,95775.47
2018-02-14T12:42:36.666Z,95771.31
2018-02-14T12:45:04.994Z,95777.23
2018-02-14T12:47:33.354Z,95779.61
2018-02-14T12:50:01.706Z,95774.70
2018-02-14T12:52:30.040Z,95777.84
2018-02-14T12:54:58.385Z,95774.35
2018-02-14T12:57:26.705Z,95767.70
2018-02-14T12:59:55.036Z,95765.00
2018-02-14T13:02:23.373Z,95763.95
2018-02-14T13:04:51.713Z,95758.52
2018-02-14T13:07:20.035Z,95753.96
2018-02-14T13:09:48.385Z,95755.23
2018-02-14T13:12:16.705Z,95758.41
2018-02-14T13:14:45.068Z,95757.14
2018-02-14T13:17:13.435Z,95759.71
2018-02-14T13:19:41.763Z,95765.05
2018-02-14T13:22:10.166Z,95770.02
2018-02-14T13:24:38.529Z,95761.89
2018-02-14T13:27:06.885Z,95758.25
2018-02-14T13:29:35.265Z,95758.10
2018-02-14T13:32:03.614Z,95760.59
2018-02-14T13:34:31.962Z,95753.63
2018-02-14T13:37:00.298Z,95747.62
2018-02-14T13:39:28.650Z,95751.08
2018-02-14T13:41:56.982Z,95752.70
2018-02-14T13:44:25.604Z,95748.67
2018-02-14T13:46:53.929Z,95754.33
2018-02-14T13:49:22.255Z,95756.84
2018-02-14T13:51:50.669Z,95757.13
2018-02-14T13:54:19.001Z,95757.37
2018-02-14T13:56:47.403Z,95760.39
2018-02-14T13:59:15.770Z,95769.47
2018-02-14T14:01:44.167Z,95772.41
2018-02-14T14:04:12.496Z,95764.58
2018-02-14T14:06:40.819Z,95762.80
2018-02-14T14:09:09.162Z,95768.17
2018-02-14T14:11:37.498Z,95773.33
2018-02-14T14:14:05.854Z,95774.83
2018-02-14T14:16:34.186Z,95766.42
2018-02-14T14:19:02.572Z,95775.41
2018-02-14T14:21:30.873Z,95781.70
2018-02-14T14:23:59.215Z,95776.52
2018-02-14T14:26:27.565Z,95781.81
2018-02-14T14:28:55.905Z,95775.47
2018-02-14T14:31:24.275Z,95782.84
2018-02-14T14:33:52.595Z,95786.17
2018-02-14T14:36:20.943Z,95797.89
2018-02-14T14:38:49.343Z,95798.89
2018-02-14T14:41:17.672Z,95810.22
2018-02-14T14:43:45.999Z,95798.98
2018-02-14T14:46:14.435Z,95804.01
2018-02-14T14:48:42.779Z,95798.17
2018-02-14T14:51:11.116Z,95799.06
2018-02-14T14:53:39.460Z,95818.11
2018-02-14T14:56:07.774Z,95821.86
2018-02-14T14:58:36.110Z,95816.05
2018-02-14T15:01:04.429Z,95820.10
2018-02-14T15:03:32.786Z,95818.94
2018-02-14T15:06:01.126Z,95816.10
2018-02-14T15:08:29.433Z,95830.48
2018-02-14T15:10:57.796Z,95824.02
2018-02-14T15:13:26.157Z,95828.68
2018-02-14T15:15:54.507Z,95825.44
2018-02-14T15:18:22.827Z,95836.83
2018-02-14T15:20:51.179Z,95841.48
2018-02-14T15:23:19.483Z,95846.90
2018-02-14T15:25:47.862Z,95843.44
2018-02-14T15:28:16.194Z,95845.39
2018-02-14T15:30:44.514Z,95842.05
2018-02-14T15:33:13.014Z,95843.62
2018-02-14T15:35:41.339Z,95846.92
2018-02-14T15:38:09.681Z,95847.33
2018-02-14T15:40:38.012Z,95852.77
2018-02-14T15:43:06.530Z,95854.94
2018-02-14T15:45:35.194Z,95855.41
2018-02-14T15:48:03.540Z,95860.24
2018-02-14T15:50:31.860Z,95861.59
2018-02-14T15:53:00.184Z,95875.06
2018-02-14T15:55:28.535Z,95860.38
2018-02-14T15:57:56.877Z,95866.95
2018-02-14T16:00:25.222Z,95866.55
2018-02-14T16:02:53.544Z,95874.31
2018-02-14T16:05:21.958Z,95874.58
2018-02-14T16:07:50.275Z,95873.94
2018-02-14T16:10:18.640Z,95870.50
2018-02-14T16:12:46.966Z,95872.69
2018-02-14T16:15:15.360Z,95878.89
2018-02-14T16:17:43.679Z,95879.65
2018-02-14T16:20:12.038Z,95877.77
2018-02-14T16:22:40.370Z,95881.39
2018-02-14T16:25:08.720Z,95883.38
2018-02-14T16:27:37.064Z,95877.23
2018-02-14T16:30:05.405Z,95885.58
2018-02-14T16:32:33.828Z,95897.27
2018-02-14T16:35:02.131Z,95903.41
2018-02-14T16:37:30.513Z,95896.80
2018-02-14T16:39:58.826Z,95898.03
2018-02-14T16:42:27.295Z,95904.64
2018-02-14T16:44:56.609Z,95902.78
2018-02-14T16:47:24.923Z,95904.05
2018-02-14T16:49:53.272Z,95911.53
2018-02-14T16:52:21.631Z,95913.02
2018-02-14T16:54:49.975Z,95917.73
2018-02-14T16:57:18.429Z,95923.50
2018-02-14T16:59:46.878Z,95926.86
2018-02-14T17:02:15.288Z,95934.13
2018-02-14T17:04:43.744Z,95931.48
2018-02-14T17:07:13.002Z,95934.59
2018-02-14T17:09:41.417Z,95937.17
2018-02-14T17:12:09.813Z,95945.84
2018-02-14T17:14:38.397Z,95945.47
2018-02-14T17:17:06.746Z,95948.55
2018-02-14T17:19:35.061Z,95950.88
2018-02-14T17:22:03.397Z,95957.12
2018-02-14T17:24:31.749Z,95951.39
2018-02-14T17:27:00.084Z,95958.73
2018-02-14T17:29:28.470Z,95956.93
2018-02-14T17:31:56.812Z,95956.07
2018-02-14T17:34:25.148Z,95962.84
2018-02-14T17:36:53.505Z,95958.95
2018-02-14T17:39:21.946Z,95957.01
2018-02-14T17:41:50.276Z,95964.98
2018-02-14T17:44:18.598Z,95962.72
2018-02-14T17:46:46.949Z,95962.08
2018-02-14T17:49:15.294Z,95962.77
2018-02-14T17:51:43.645Z,95966.50
2018-02-14T17:54:11.978Z,95975.48
2018-02-14T17:56:40.315Z,95973.30
2018-02-14T17:59:08.710Z,95973.35
2018-02-14T18:01:37.145Z,95970.06
2018-02-14T18:04:05.563Z,95978.93
2018-02-14T18:06:33.875Z,95970.39
2018-02-14T18:09:02.247Z,95968.41
2018-02-14T18:11:30.576Z,95964.56
2018-02-14T18:13:58.934Z,95966.68
2018-02-14T18:16:27.274Z,95967.52
2018-02-14T18:18:55.620Z,95973.70
2018-02-14T18:21:23.998Z,95979.25
2018-02-14T18:23:52.349Z,95985.48
2018-02-14T18:26:20.742Z,95986.75
2018-02-14T18:28:49.070Z,95997.96
2018-02-14T18:31:17.442Z,96002.11
2018-02-14T18:33:45.771Z,95998.73
2018-02-14T18:36:14.176Z,95992.70
2018-02-14T18:38:42.493Z,95991.43
2018-02-14T18:41:10.840Z,95986.90
2018-02-14T18:43:39.167Z,95988.66
2018-02-14T18:46:07.663Z,95988.98
2018-02-14T18:48:35.992Z,95992.70
2018-02-14T18:51:04.351Z,95996.52
2018-02-14T18:53:32.721Z,96009.21
2018-02-14T18:56:01.051Z,96004.27
2018-02-14T18:58:29.390Z,96010.92
2018-02-14T19:00:58.711Z,96010.17
2018-02-14T19:03:27.066Z,96017.88
2018-02-14T19:05:55.444Z,96015.34
2018-02-14T19:08:23.858Z,96028.94
2018-02-14T19:10:52.189Z,96033.65
2018-02-14T19:13:20.550Z,96029.97
2018-02-14T19:15:48.902Z,96036.32
2018-02-14T19:18:17.235Z,96025.11
2018-02-14T19:20:45.614Z,96029.86
2018-02-14T19:23:13.927Z,96035.36
2018-02-14T19:25:42.273Z,96035.20
2018-02-14T19:28:10.613Z,96038.22
2018-02-14T19:30:38.953Z,96038.88
2018-02-14T19:33:07.291Z,96037.26
2018-02-14T19:35:35.643Z,96031.35
2018-02-14T19:38:03.979Z,96032.40
2018-02-14T19:40:32.349Z,96029.41
2018-02-14T19:43:00.797Z,96034.89
2018-02-14T19:45:29.154Z,96034.19
2018-02-14T19:47:57.490Z,96042.45
2018-02-14T19:50:25.810Z,96039.23
2018-02-14T19:52:54.165Z,96042.37
2018-02-14T19:55:22.496Z,96038.87
2018-02-14T19:57:50.846Z,96043.16
2018-02-14T20:00:19.175Z,96040.20
2018-02-14T20:02:47.545Z,96049.56
2018-02-14T20:05:15.877Z,96045.03
2018-02-14T20:07:44.268Z,96041.88
2018-02-14T20:10:12.611Z,96043.43
2018-02-14T20:12:41.449Z,96037.59
2018-02-14T20:15:09.804Z,96040.63
2018-02-14T20:17:38.202Z,96044.23
2018-02-14T20:20:06.552Z,96045.89
2018-02-14T20:22:34.894Z,96052.83
2018-02-14T20:25:03.250Z,96054.47
2018-02-14T20:27:31.578Z,96056.58
2018-02-14T20:29:59.926Z,96062.88
2018-02-14T20:32:28.251Z,96064.27
2018-02-14T20:34:56.610Z,96062.20
2018-02-14T20:37:25.020Z,96067.05
2018-02-14T20:39:53.329Z,96071.88
2018-02-14T20:42:21.692Z,96070.09
2018-02-14T20:44:50.023Z,96080.30
2018-02-14T20:47:18.388Z,96077.95
2018-02-14T20:49:46.727Z,96081.44
2018-02-14T20:52:15.492Z,96075.00
2018-02-14T20:54:43.787Z,96076.88
2018-02-14T20:57:12.117Z,96077.34
2018-02-14T20:59:40.520Z,96074.23
2018-02-14T21:02:08.865Z,96076.86
2018-02-14T21:04:37.242Z,96072.30
2018-02-14T21:07:06.280Z,96073.12
2018-02-14T21:09:34.746Z,96072.59
2018-02-14T21:12:03.098Z,96070.41
2018-02-14T21:14:31.474Z,96070.14
2018-02-14T21:16:59.810Z,96065.88
2018-02-14T21:19:28.245Z,96065.48
2018-02-14T21:21:56.591Z,96070.48
2018-02-14T21:24:25.818Z,96072.08
2018-02-14T21:26:54.175Z,96074.06
2018-02-14T21:29:22.517Z,96068.50
2018-02-14T21:31:50.899Z,96070.80
2018-02-14T21:34:19.367Z,96066.37
2018-02-14T21:36:48.033Z,96063.64
2018-02-14T21:39:16.381Z,96066.31
2018-02-14T21:41:44.714Z,96068.48
2018-02-14T21:44:13.082Z,96069.27
2018-02-14T21:46:41.436Z,96064.74
2018-02-14T21:49:09.812Z,96058.48
2018-02-14T21:51:38.173Z,96060.64
2018-02-14T21:54:06.533Z,96051.27
2018-02-14T21:56:34.930Z,96050.66
2018-02-14T21:59:03.338Z,96056.11
2018-02-14T22:01:31.704Z,96054.00
2018-02-14T22:04:00.048Z,96042.75
2018-02-14T22:06:28.416Z,96042.64
2018-02-14T22:08:56.849Z,96043.34
2018-02-14T22:11:25.231Z,96042.73
2018-02-14T22:13:53.582Z,96034.87
2018-02-14T22:16:22.009Z,96037.19
2018-02-14T22:18:50.492Z,96029.91
2018-02-14T22:21:18.835Z,96024.65
2018-02-14T22:23:47.206Z,96021.84
2018-02-14T22:26:15.550Z,96019.50
2018-02-14T22:28:43.922Z,96013.86
2018-02-14T22:31:12.275Z,96013.42
2018-02-14T22:33:40.645Z,96021.80
2018-02-14T22:36:08.998Z,96021.80
2018-02-14T22:38:37.416Z,96021.20
2018-02-14T22:41:05.816Z,96017.84
2018-02-14T22:43:34.159Z,96015.42
2018-02-14T22:46:02.526Z,96017.39
2018-02-14T22:48:30.889Z,96022.37
2018-02-14T22:50:59.247Z,96022.53
2018-02-14T22:53:27.588Z,96020.55
2018-02-14T22:55:56.039Z,96011.83
2018-02-14T22:58:24.390Z,96018.95
2018-02-14T23:00:52.803Z,96014.03
2018-02-14T23:03:21.168Z,96006.48
2018-02-14T23:05:49.523Z,96004.88
2018-02-14T23:08:17.878Z,96007.41
2018-02-14T23:10:46.323Z,96003.03
2018-02-14T23:13:14.683Z,95997.09
2018-02-14T23:15:43.024Z,96001.13
2018-02-14T23:18:11.449Z,96004.93
2018-02-14T23:20:39.811Z,96003.77
2018-02-14T23:23:08.194Z,96015.80
2018-02-14T23:30:13.302Z,96011.32
2018-02-14T23:32:41.650Z,96012.36
2018-02-14T23:35:10.014Z,96006.55
2018-02-14T23:37:38.368Z,96008.98
2018-02-14T23:40:06.779Z,96003.85
2018-02-14T23:42:35.170Z,95998.63
2018-02-14T23:45:03.532Z,95995.34
2018-02-14T23:47:31.883Z,95993.55
2018-02-14T23:50:00.352Z,95982.34
2018-02-14T23:52:28.695Z,95983.95
2018-02-14T23:54:57.075Z,95981.69
2018-02-14T23:57:25.422Z,95984.04
2018-02-14T23:59:53.771Z,95976.73
